sensor_id;sensor_type;location;lat;lon;timestamp;temperature;humidity
5011;DHT22;2524;54.364;10.072;2023-02-13T00:00:07;7.60;99.90
5011;DHT22;2524;54.364;10.072;2023-02-13T00:02:33;7.50;99.90
5011;DHT22;2524;54.364;10.072;2023-02-13T00:04:59;7.50;99.90
5011;DHT22;2524;54.364;10.072;2023-02-13T00:07:25;7.50;99.90
5011;DHT22;2524;54.364;10.072;2023-02-13T00:09:50;7.50;99.90
5011;DHT22;2524;54.364;10.072;2023-02-13T00:12:16;7.50;99.90
5011;DHT22;2524;54.364;10.072;2023-02-13T00:14:41;7.50;99.90
5011;DHT22;2524;54.364;10.072;2023-02-13T00:17:07;7.50;99.90
5011;DHT22;2524;54.364;10.072;2023-02-13T00:19:32;7.50;99.90
5011;DHT22;2524;54.364;10.072;2023-02-13T00:21:58;7.50;99.90
5011;DHT22;2524;54.364;10.072;2023-02-13T00:24:24;7.50;99.90
5011;DHT22;2524;54.364;10.072;2023-02-13T00:26:49;7.50;99.90
5011;DHT22;2524;54.364;10.072;2023-02-13T00:29:15;7.40;99.90
5011;DHT22;2524;54.364;10.072;2023-02-13T00:31:41;7.40;99.90
5011;DHT22;2524;54.364;10.072;2023-02-13T00:34:06;7.40;99.90
5011;DHT22;2524;54.364;10.072;2023-02-13T00:36:32;7.40;99.90
5011;DHT22;2524;54.364;10.072;2023-02-13T00:38:58;7.50;99.90
5011;DHT22;2524;54.364;10.072;2023-02-13T00:41:23;7.50;99.90
5011;DHT22;2524;54.364;10.072;2023-02-13T00:43:49;7.40;99.90
5011;DHT22;2524;54.364;10.072;2023-02-13T00:46:16;7.40;99.90
5011;DHT22;2524;54.364;10.072;2023-02-13T00:48:41;7.50;99.90
5011;DHT22;2524;54.364;10.072;2023-02-13T00:51:07;7.40;99.90
5011;DHT22;2524;54.364;10.072;2023-02-13T00:53:34;7.40;99.90
5011;DHT22;2524;54.364;10.072;2023-02-13T00:56:00;7.40;99.90
5011;DHT22;2524;54.364;10.072;2023-02-13T00:58:27;7.40;99.90
5011;DHT22;2524;54.364;10.072;2023-02-13T01:00:53;7.40;99.90
5011;DHT22;2524;54.364;10.072;2023-02-13T01:03:21;7.40;99.90
5011;DHT22;2524;54.364;10.072;2023-02-13T01:05:47;7.40;99.90
5011;DHT22;2524;54.364;10.072;2023-02-13T01:08:14;7.40;99.90
5011;DHT22;2524;54.364;10.072;2023-02-13T01:10:41;7.40;99.90
5011;DHT22;2524;54.364;10.072;2023-02-13T01:13:08;7.40;99.90
5011;DHT22;2524;54.364;10.072;2023-02-13T01:15:34;7.40;99.90
5011;DHT22;2524;54.364;10.072;2023-02-13T01:18:00;7.40;99.90
5011;DHT22;2524;54.364;10.072;2023-02-13T01:20:27;7.40;99.90
5011;DHT22;2524;54.364;10.072;2023-02-13T01:22:53;7.40;99.90
5011;DHT22;2524;54.364;10.072;2023-02-13T01:25:19;7.40;99.90
5011;DHT22;2524;54.364;10.072;2023-02-13T01:27:45;7.40;99.90
5011;DHT22;2524;54.364;10.072;2023-02-13T01:30:12;7.30;99.90
5011;DHT22;2524;54.364;10.072;2023-02-13T01:32:43;7.40;99.90
5011;DHT22;2524;54.364;10.072;2023-02-13T01:35:10;7.30;99.90
5011;DHT22;2524;54.364;10.072;2023-02-13T01:37:36;7.30;99.90
5011;DHT22;2524;54.364;10.072;2023-02-13T01:40:04;7.30;99.90
5011;DHT22;2524;54.364;10.072;2023-02-13T01:42:31;7.30;99.90
5011;DHT22;2524;54.364;10.072;2023-02-13T01:45:00;7.30;99.90
5011;DHT22;2524;54.364;10.072;2023-02-13T01:47:43;7.30;99.90
5011;DHT22;2524;54.364;10.072;2023-02-13T01:50:21;7.30;99.90
5011;DHT22;2524;54.364;10.072;2023-02-13T01:53:08;7.30;99.90
5011;DHT22;2524;54.364;10.072;2023-02-13T01:55:40;7.30;99.90
5011;DHT22;2524;54.364;10.072;2023-02-13T01:58:10;7.30;99.90
5011;DHT22;2524;54.364;10.072;2023-02-13T02:00:37;7.30;99.90
5011;DHT22;2524;54.364;10.072;2023-02-13T02:03:13;7.30;99.90
5011;DHT22;2524;54.364;10.072;2023-02-13T02:05:40;7.30;99.90
5011;DHT22;2524;54.364;10.072;2023-02-13T02:08:08;7.30;99.90
5011;DHT22;2524;54.364;10.072;2023-02-13T02:10:35;7.30;99.90
5011;DHT22;2524;54.364;10.072;2023-02-13T02:13:14;7.30;99.90
5011;DHT22;2524;54.364;10.072;2023-02-13T02:15:41;7.30;99.90
5011;DHT22;2524;54.364;10.072;2023-02-13T02:18:18;7.30;99.90
5011;DHT22;2524;54.364;10.072;2023-02-13T02:26:57;7.30;99.90
5011;DHT22;2524;54.364;10.072;2023-02-13T02:35:08;7.20;99.90
5011;DHT22;2524;54.364;10.072;2023-02-13T02:40:45;7.20;99.90
5011;DHT22;2524;54.364;10.072;2023-02-13T02:43:27;7.20;99.90
5011;DHT22;2524;54.364;10.072;2023-02-13T02:46:10;7.20;99.90
5011;DHT22;2524;54.364;10.072;2023-02-13T02:49:06;7.20;99.90
5011;DHT22;2524;54.364;10.072;2023-02-13T02:54:44;7.20;99.90
5011;DHT22;2524;54.364;10.072;2023-02-13T02:57:30;7.20;99.90
5011;DHT22;2524;54.364;10.072;2023-02-13T03:00:18;7.20;99.90
5011;DHT22;2524;54.364;10.072;2023-02-13T03:03:21;7.20;99.90
5011;DHT22;2524;54.364;10.072;2023-02-13T03:06:21;7.10;99.90
5011;DHT22;2524;54.364;10.072;2023-02-13T03:08:54;7.10;99.90
5011;DHT22;2524;54.364;10.072;2023-02-13T03:11:41;7.10;99.90
5011;DHT22;2524;54.364;10.072;2023-02-13T03:14:26;7.10;99.90
5011;DHT22;2524;54.364;10.072;2023-02-13T03:16:53;7.10;99.90
5011;DHT22;2524;54.364;10.072;2023-02-13T03:22:57;7.10;99.90
5011;DHT22;2524;54.364;10.072;2023-02-13T03:26:10;7.10;99.90
5011;DHT22;2524;54.364;10.072;2023-02-13T03:29:19;7.10;99.90
5011;DHT22;2524;54.364;10.072;2023-02-13T03:32:19;7.10;99.90
5011;DHT22;2524;54.364;10.072;2023-02-13T03:34:57;7.10;99.90
5011;DHT22;2524;54.364;10.072;2023-02-13T03:37:49;7.00;99.90
5011;DHT22;2524;54.364;10.072;2023-02-13T03:42:54;7.10;99.90
5011;DHT22;2524;54.364;10.072;2023-02-13T03:45:28;7.00;99.90
5011;DHT22;2524;54.364;10.072;2023-02-13T03:48:16;7.00;99.90
5011;DHT22;2524;54.364;10.072;2023-02-13T03:51:17;7.00;99.90
5011;DHT22;2524;54.364;10.072;2023-02-13T03:53:45;7.00;99.90
5011;DHT22;2524;54.364;10.072;2023-02-13T03:56:14;7.00;99.90
5011;DHT22;2524;54.364;10.072;2023-02-13T03:59:01;7.00;99.90
5011;DHT22;2524;54.364;10.072;2023-02-13T04:01:50;7.00;99.90
5011;DHT22;2524;54.364;10.072;2023-02-13T04:07:05;7.00;99.90
5011;DHT22;2524;54.364;10.072;2023-02-13T04:09:34;7.00;99.90
5011;DHT22;2524;54.364;10.072;2023-02-13T04:12:18;7.00;99.90
5011;DHT22;2524;54.364;10.072;2023-02-13T04:14:52;7.00;99.90
5011;DHT22;2524;54.364;10.072;2023-02-13T04:17:30;7.00;99.90
5011;DHT22;2524;54.364;10.072;2023-02-13T04:19:57;6.90;99.90
5011;DHT22;2524;54.364;10.072;2023-02-13T04:22:23;6.90;99.90
5011;DHT22;2524;54.364;10.072;2023-02-13T04:24:49;6.90;99.90
5011;DHT22;2524;54.364;10.072;2023-02-13T04:27:15;6.90;99.90
5011;DHT22;2524;54.364;10.072;2023-02-13T04:29:41;6.90;99.90
5011;DHT22;2524;54.364;10.072;2023-02-13T04:32:09;6.90;99.90
5011;DHT22;2524;54.364;10.072;2023-02-13T04:34:35;6.90;99.90
5011;DHT22;2524;54.364;10.072;2023-02-13T04:37:00;6.90;99.90
5011;DHT22;2524;54.364;10.072;2023-02-13T04:39:26;6.90;99.90
5011;DHT22;2524;54.364;10.072;2023-02-13T04:41:51;6.90;99.90
5011;DHT22;2524;54.364;10.072;2023-02-13T04:44:17;6.90;99.90
5011;DHT22;2524;54.364;10.072;2023-02-13T04:46:42;6.90;99.90
5011;DHT22;2524;54.364;10.072;2023-02-13T04:49:09;6.90;99.90
5011;DHT22;2524;54.364;10.072;2023-02-13T04:51:35;6.90;99.90
5011;DHT22;2524;54.364;10.072;2023-02-13T04:54:00;6.90;99.90
5011;DHT22;2524;54.364;10.072;2023-02-13T04:56:26;6.90;99.90
5011;DHT22;2524;54.364;10.072;2023-02-13T04:58:52;6.90;99.90
5011;DHT22;2524;54.364;10.072;2023-02-13T05:01:18;6.90;99.90
5011;DHT22;2524;54.364;10.072;2023-02-13T05:03:44;6.90;99.90
5011;DHT22;2524;54.364;10.072;2023-02-13T05:06:09;6.90;99.90
5011;DHT22;2524;54.364;10.072;2023-02-13T05:08:35;6.90;99.90
5011;DHT22;2524;54.364;10.072;2023-02-13T05:11:01;6.90;99.90
5011;DHT22;2524;54.364;10.072;2023-02-13T05:13:26;6.90;99.90
5011;DHT22;2524;54.364;10.072;2023-02-13T05:15:52;6.90;99.90
5011;DHT22;2524;54.364;10.072;2023-02-13T05:18:18;6.90;99.90
5011;DHT22;2524;54.364;10.072;2023-02-13T05:20:44;6.90;99.90
5011;DHT22;2524;54.364;10.072;2023-02-13T05:23:30;6.90;99.90
5011;DHT22;2524;54.364;10.072;2023-02-13T05:25:55;7.00;99.90
5011;DHT22;2524;54.364;10.072;2023-02-13T05:28:21;7.00;99.90
5011;DHT22;2524;54.364;10.072;2023-02-13T05:31:05;6.90;99.90
5011;DHT22;2524;54.364;10.072;2023-02-13T05:33:30;6.90;99.90
5011;DHT22;2524;54.364;10.072;2023-02-13T05:35:56;6.90;99.90
5011;DHT22;2524;54.364;10.072;2023-02-13T05:38:21;6.90;99.90
5011;DHT22;2524;54.364;10.072;2023-02-13T05:40:47;6.90;99.90
5011;DHT22;2524;54.364;10.072;2023-02-13T05:43:12;6.90;99.90
5011;DHT22;2524;54.364;10.072;2023-02-13T05:45:38;6.90;99.90
5011;DHT22;2524;54.364;10.072;2023-02-13T05:48:03;6.90;99.90
5011;DHT22;2524;54.364;10.072;2023-02-13T05:50:29;6.90;99.90
5011;DHT22;2524;54.364;10.072;2023-02-13T05:52:55;6.90;99.90
5011;DHT22;2524;54.364;10.072;2023-02-13T05:55:20;6.90;99.90
5011;DHT22;2524;54.364;10.072;2023-02-13T05:57:46;6.90;99.90
5011;DHT22;2524;54.364;10.072;2023-02-13T06:00:12;6.80;99.90
5011;DHT22;2524;54.364;10.072;2023-02-13T06:02:38;6.90;99.90
5011;DHT22;2524;54.364;10.072;2023-02-13T06:05:03;6.90;99.90
5011;DHT22;2524;54.364;10.072;2023-02-13T06:07:29;6.80;99.90
5011;DHT22;2524;54.364;10.072;2023-02-13T06:09:55;6.90;99.90
5011;DHT22;2524;54.364;10.072;2023-02-13T06:12:24;6.90;99.90
5011;DHT22;2524;54.364;10.072;2023-02-13T06:14:49;6.90;99.90
5011;DHT22;2524;54.364;10.072;2023-02-13T06:17:15;6.90;99.90
5011;DHT22;2524;54.364;10.072;2023-02-13T06:19:41;6.90;99.90
5011;DHT22;2524;54.364;10.072;2023-02-13T06:22:06;6.80;99.90
5011;DHT22;2524;54.364;10.072;2023-02-13T06:24:32;6.80;99.90
5011;DHT22;2524;54.364;10.072;2023-02-13T06:26:57;6.80;99.90
5011;DHT22;2524;54.364;10.072;2023-02-13T06:29:23;6.80;99.90
5011;DHT22;2524;54.364;10.072;2023-02-13T06:31:48;6.80;99.90
5011;DHT22;2524;54.364;10.072;2023-02-13T06:34:14;6.80;99.90
5011;DHT22;2524;54.364;10.072;2023-02-13T06:36:40;6.80;99.90
5011;DHT22;2524;54.364;10.072;2023-02-13T06:39:08;6.80;99.90
5011;DHT22;2524;54.364;10.072;2023-02-13T06:41:35;6.80;99.90
5011;DHT22;2524;54.364;10.072;2023-02-13T06:44:00;6.80;99.90
5011;DHT22;2524;54.364;10.072;2023-02-13T06:46:26;6.80;99.90
5011;DHT22;2524;54.364;10.072;2023-02-13T06:48:51;6.80;99.90
5011;DHT22;2524;54.364;10.072;2023-02-13T06:51:17;6.80;99.90
5011;DHT22;2524;54.364;10.072;2023-02-13T06:53:42;6.80;99.90
5011;DHT22;2524;54.364;10.072;2023-02-13T06:56:08;6.80;99.90
5011;DHT22;2524;54.364;10.072;2023-02-13T06:58:35;6.80;99.90
5011;DHT22;2524;54.364;10.072;2023-02-13T07:01:01;6.80;99.90
5011;DHT22;2524;54.364;10.072;2023-02-13T07:03:26;6.80;99.90
5011;DHT22;2524;54.364;10.072;2023-02-13T07:05:52;6.80;99.90
5011;DHT22;2524;54.364;10.072;2023-02-13T07:08:18;6.90;99.90
5011;DHT22;2524;54.364;10.072;2023-02-13T07:10:43;6.80;99.90
5011;DHT22;2524;54.364;10.072;2023-02-13T07:13:09;6.80;99.90
5011;DHT22;2524;54.364;10.072;2023-02-13T07:15:36;6.80;99.90
5011;DHT22;2524;54.364;10.072;2023-02-13T07:18:02;6.80;99.90
5011;DHT22;2524;54.364;10.072;2023-02-13T07:20:28;6.80;99.90
5011;DHT22;2524;54.364;10.072;2023-02-13T07:22:58;6.80;99.90
5011;DHT22;2524;54.364;10.072;2023-02-13T07:25:24;6.80;99.90
5011;DHT22;2524;54.364;10.072;2023-02-13T07:27:49;6.80;99.90
5011;DHT22;2524;54.364;10.072;2023-02-13T07:30:15;6.80;99.90
5011;DHT22;2524;54.364;10.072;2023-02-13T07:32:41;6.70;99.90
5011;DHT22;2524;54.364;10.072;2023-02-13T07:35:06;6.80;99.90
5011;DHT22;2524;54.364;10.072;2023-02-13T07:37:32;6.80;99.90
5011;DHT22;2524;54.364;10.072;2023-02-13T07:39:58;6.80;99.90
5011;DHT22;2524;54.364;10.072;2023-02-13T07:42:23;6.80;99.90
5011;DHT22;2524;54.364;10.072;2023-02-13T07:44:49;6.80;99.90
5011;DHT22;2524;54.364;10.072;2023-02-13T07:47:14;6.80;99.90
5011;DHT22;2524;54.364;10.072;2023-02-13T07:49:40;6.80;99.90
5011;DHT22;2524;54.364;10.072;2023-02-13T07:52:06;6.80;99.90
5011;DHT22;2524;54.364;10.072;2023-02-13T07:54:31;6.80;99.90
5011;DHT22;2524;54.364;10.072;2023-02-13T07:56:57;6.80;99.90
5011;DHT22;2524;54.364;10.072;2023-02-13T07:59:23;6.80;99.90
5011;DHT22;2524;54.364;10.072;2023-02-13T08:01:49;6.80;99.90
5011;DHT22;2524;54.364;10.072;2023-02-13T08:04:15;6.80;99.90
5011;DHT22;2524;54.364;10.072;2023-02-13T08:06:41;6.80;99.90
5011;DHT22;2524;54.364;10.072;2023-02-13T08:09:07;6.70;99.90
5011;DHT22;2524;54.364;10.072;2023-02-13T08:11:57;6.80;99.90
5011;DHT22;2524;54.364;10.072;2023-02-13T08:14:25;6.70;99.90
5011;DHT22;2524;54.364;10.072;2023-02-13T08:16:52;6.70;99.90
5011;DHT22;2524;54.364;10.072;2023-02-13T08:19:18;6.70;99.90
5011;DHT22;2524;54.364;10.072;2023-02-13T08:21:44;6.80;99.90
5011;DHT22;2524;54.364;10.072;2023-02-13T08:24:11;6.70;99.90
5011;DHT22;2524;54.364;10.072;2023-02-13T08:26:37;6.80;99.90
5011;DHT22;2524;54.364;10.072;2023-02-13T08:29:04;6.80;99.90
5011;DHT22;2524;54.364;10.072;2023-02-13T08:31:30;6.80;99.90
5011;DHT22;2524;54.364;10.072;2023-02-13T08:33:56;6.80;99.90
5011;DHT22;2524;54.364;10.072;2023-02-13T08:36:22;6.80;99.90
5011;DHT22;2524;54.364;10.072;2023-02-13T08:38:48;6.80;99.90
5011;DHT22;2524;54.364;10.072;2023-02-13T08:41:14;6.80;99.90
5011;DHT22;2524;54.364;10.072;2023-02-13T08:43:42;6.80;99.90
5011;DHT22;2524;54.364;10.072;2023-02-13T08:46:08;6.80;99.90
5011;DHT22;2524;54.364;10.072;2023-02-13T08:48:34;6.80;99.90
5011;DHT22;2524;54.364;10.072;2023-02-13T08:50:59;6.80;99.90
5011;DHT22;2524;54.364;10.072;2023-02-13T08:53:29;6.80;99.90
5011;DHT22;2524;54.364;10.072;2023-02-13T08:55:55;6.80;99.90
5011;DHT22;2524;54.364;10.072;2023-02-13T08:58:21;6.80;99.90
5011;DHT22;2524;54.364;10.072;2023-02-13T09:00:47;6.80;99.90
5011;DHT22;2524;54.364;10.072;2023-02-13T09:03:13;6.80;99.90
5011;DHT22;2524;54.364;10.072;2023-02-13T09:05:38;6.80;99.90
5011;DHT22;2524;54.364;10.072;2023-02-13T09:08:04;6.80;99.90
5011;DHT22;2524;54.364;10.072;2023-02-13T09:10:31;6.90;99.90
5011;DHT22;2524;54.364;10.072;2023-02-13T09:12:57;6.90;99.90
5011;DHT22;2524;54.364;10.072;2023-02-13T09:15:22;6.90;99.90
5011;DHT22;2524;54.364;10.072;2023-02-13T09:17:48;6.90;99.90
5011;DHT22;2524;54.364;10.072;2023-02-13T09:20:14;6.90;99.90
5011;DHT22;2524;54.364;10.072;2023-02-13T09:22:40;6.90;99.90
5011;DHT22;2524;54.364;10.072;2023-02-13T09:25:06;6.90;99.90
5011;DHT22;2524;54.364;10.072;2023-02-13T09:27:32;6.90;99.90
5011;DHT22;2524;54.364;10.072;2023-02-13T09:29:58;6.90;99.90
5011;DHT22;2524;54.364;10.072;2023-02-13T09:32:24;6.90;99.90
5011;DHT22;2524;54.364;10.072;2023-02-13T09:34:50;6.90;99.90
5011;DHT22;2524;54.364;10.072;2023-02-13T09:37:15;6.90;99.90
5011;DHT22;2524;54.364;10.072;2023-02-13T09:39:41;6.90;99.90
5011;DHT22;2524;54.364;10.072;2023-02-13T09:42:18;6.90;99.90
5011;DHT22;2524;54.364;10.072;2023-02-13T09:44:49;6.90;99.90
5011;DHT22;2524;54.364;10.072;2023-02-13T09:49:52;7.00;99.90
5011;DHT22;2524;54.364;10.072;2023-02-13T09:52:18;7.00;99.90
5011;DHT22;2524;54.364;10.072;2023-02-13T09:54:44;7.00;99.90
5011;DHT22;2524;54.364;10.072;2023-02-13T09:57:33;7.00;99.90
5011;DHT22;2524;54.364;10.072;2023-02-13T10:18:59;7.10;99.90
5011;DHT22;2524;54.364;10.072;2023-02-13T10:21:31;7.10;99.90
5011;DHT22;2524;54.364;10.072;2023-02-13T10:24:10;7.10;99.90
5011;DHT22;2524;54.364;10.072;2023-02-13T10:26:38;7.20;99.90
5011;DHT22;2524;54.364;10.072;2023-02-13T10:29:35;7.20;99.90
5011;DHT22;2524;54.364;10.072;2023-02-13T10:32:27;7.20;99.90
5011;DHT22;2524;54.364;10.072;2023-02-13T10:34:56;7.20;99.90
5011;DHT22;2524;54.364;10.072;2023-02-13T10:37:23;7.20;99.90
5011;DHT22;2524;54.364;10.072;2023-02-13T10:39:51;7.30;99.90
5011;DHT22;2524;54.364;10.072;2023-02-13T10:45:26;7.30;99.90
5011;DHT22;2524;54.364;10.072;2023-02-13T10:48:12;7.30;99.90
5011;DHT22;2524;54.364;10.072;2023-02-13T10:50:55;7.30;99.90
5011;DHT22;2524;54.364;10.072;2023-02-13T10:53:41;7.30;99.90
5011;DHT22;2524;54.364;10.072;2023-02-13T10:59:03;7.30;99.90
5011;DHT22;2524;54.364;10.072;2023-02-13T11:01:47;7.30;99.90
5011;DHT22;2524;54.364;10.072;2023-02-13T11:04:18;7.40;99.90
5011;DHT22;2524;54.364;10.072;2023-02-13T11:07:01;7.40;99.90
5011;DHT22;2524;54.364;10.072;2023-02-13T11:09:29;7.40;99.90
5011;DHT22;2524;54.364;10.072;2023-02-13T11:11:57;7.40;99.90
5011;DHT22;2524;54.364;10.072;2023-02-13T11:14:24;7.50;99.90
5011;DHT22;2524;54.364;10.072;2023-02-13T11:17:05;7.40;99.90
5011;DHT22;2524;54.364;10.072;2023-02-13T11:19:47;7.40;99.90
5011;DHT22;2524;54.364;10.072;2023-02-13T11:22:32;7.50;99.90
5011;DHT22;2524;54.364;10.072;2023-02-13T11:25:06;7.50;99.90
5011;DHT22;2524;54.364;10.072;2023-02-13T11:27:34;7.50;99.90
5011;DHT22;2524;54.364;10.072;2023-02-13T11:30:51;7.50;99.90
5011;DHT22;2524;54.364;10.072;2023-02-13T11:32:58;7.50;99.90
5011;DHT22;2524;54.364;10.072;2023-02-13T11:35:30;7.50;99.90
5011;DHT22;2524;54.364;10.072;2023-02-13T11:40:44;7.50;99.90
5011;DHT22;2524;54.364;10.072;2023-02-13T11:43:28;7.60;99.90
5011;DHT22;2524;54.364;10.072;2023-02-13T11:46:04;7.60;99.90
5011;DHT22;2524;54.364;10.072;2023-02-13T11:48:30;7.60;99.90
5011;DHT22;2524;54.364;10.072;2023-02-13T11:50:56;7.60;99.90
5011;DHT22;2524;54.364;10.072;2023-02-13T11:53:24;7.60;99.90
5011;DHT22;2524;54.364;10.072;2023-02-13T11:56:03;7.60;99.90
5011;DHT22;2524;54.364;10.072;2023-02-13T11:58:29;7.60;99.90
5011;DHT22;2524;54.364;10.072;2023-02-13T12:03:43;7.60;99.90
5011;DHT22;2524;54.364;10.072;2023-02-13T12:06:20;7.60;99.90
5011;DHT22;2524;54.364;10.072;2023-02-13T12:08:47;7.60;99.90
5011;DHT22;2524;54.364;10.072;2023-02-13T12:13:54;7.70;99.90
5011;DHT22;2524;54.364;10.072;2023-02-13T12:16:38;7.70;99.90
5011;DHT22;2524;54.364;10.072;2023-02-13T12:19:13;7.70;99.90
5011;DHT22;2524;54.364;10.072;2023-02-13T12:24:35;7.70;99.90
5011;DHT22;2524;54.364;10.072;2023-02-13T12:29:51;7.70;99.90
5011;DHT22;2524;54.364;10.072;2023-02-13T12:32:20;7.70;99.90
5011;DHT22;2524;54.364;10.072;2023-02-13T12:46:49;7.70;99.90
5011;DHT22;2524;54.364;10.072;2023-02-13T12:52:52;7.70;99.90
5011;DHT22;2524;54.364;10.072;2023-02-13T12:55:32;7.70;99.90
5011;DHT22;2524;54.364;10.072;2023-02-13T13:09:17;7.70;99.90
5011;DHT22;2524;54.364;10.072;2023-02-13T13:15:06;7.70;99.90
5011;DHT22;2524;54.364;10.072;2023-02-13T13:23:17;7.70;99.90
5011;DHT22;2524;54.364;10.072;2023-02-13T13:28:43;7.70;99.90
5011;DHT22;2524;54.364;10.072;2023-02-13T13:31:11;7.70;99.90
5011;DHT22;2524;54.364;10.072;2023-02-13T13:33:40;7.80;99.90
5011;DHT22;2524;54.364;10.072;2023-02-13T13:39:04;7.70;99.90
5011;DHT22;2524;54.364;10.072;2023-02-13T13:41:40;7.70;99.90
5011;DHT22;2524;54.364;10.072;2023-02-13T13:44:41;7.70;99.90
5011;DHT22;2524;54.364;10.072;2023-02-13T13:50:03;7.70;99.90
5011;DHT22;2524;54.364;10.072;2023-02-13T13:52:33;7.70;99.90
5011;DHT22;2524;54.364;10.072;2023-02-13T13:55:00;7.70;99.90
5011;DHT22;2524;54.364;10.072;2023-02-13T14:00:27;7.70;99.90
5011;DHT22;2524;54.364;10.072;2023-02-13T14:03:22;7.70;99.90
5011;DHT22;2524;54.364;10.072;2023-02-13T14:06:02;7.70;99.90
5011;DHT22;2524;54.364;10.072;2023-02-13T14:08:56;7.70;99.90
5011;DHT22;2524;54.364;10.072;2023-02-13T14:11:40;7.70;99.90
5011;DHT22;2524;54.364;10.072;2023-02-13T14:16:59;7.70;99.90
5011;DHT22;2524;54.364;10.072;2023-02-13T14:25:04;7.70;99.90
5011;DHT22;2524;54.364;10.072;2023-02-13T14:27:33;7.70;99.90
5011;DHT22;2524;54.364;10.072;2023-02-13T14:29:59;7.70;99.90
5011;DHT22;2524;54.364;10.072;2023-02-13T14:32:34;7.70;99.90
5011;DHT22;2524;54.364;10.072;2023-02-13T14:35:05;7.70;99.90
5011;DHT22;2524;54.364;10.072;2023-02-13T14:37:48;7.70;99.90
5011;DHT22;2524;54.364;10.072;2023-02-13T14:42:44;7.60;99.90
5011;DHT22;2524;54.364;10.072;2023-02-13T14:45:17;7.70;99.90
5011;DHT22;2524;54.364;10.072;2023-02-13T14:47:51;7.60;99.90
5011;DHT22;2524;54.364;10.072;2023-02-13T14:50:36;7.70;99.90
5011;DHT22;2524;54.364;10.072;2023-02-13T14:53:14;7.70;99.90
5011;DHT22;2524;54.364;10.072;2023-02-13T14:55:45;7.70;99.90
5011;DHT22;2524;54.364;10.072;2023-02-13T15:05:55;7.60;99.90
5011;DHT22;2524;54.364;10.072;2023-02-13T15:08:26;7.60;99.90
5011;DHT22;2524;54.364;10.072;2023-02-13T15:10:54;7.60;99.90
5011;DHT22;2524;54.364;10.072;2023-02-13T15:13:32;7.60;99.90
5011;DHT22;2524;54.364;10.072;2023-02-13T15:16:05;7.60;99.90
5011;DHT22;2524;54.364;10.072;2023-02-13T15:18:47;7.60;99.90
5011;DHT22;2524;54.364;10.072;2023-02-13T15:21:19;7.60;99.90
5011;DHT22;2524;54.364;10.072;2023-02-13T15:23:50;7.60;99.90
5011;DHT22;2524;54.364;10.072;2023-02-13T15:26:21;7.50;99.90
5011;DHT22;2524;54.364;10.072;2023-02-13T15:29:14;7.50;99.90
5011;DHT22;2524;54.364;10.072;2023-02-13T15:31:40;7.60;99.90
5011;DHT22;2524;54.364;10.072;2023-02-13T15:34:38;7.50;99.90
5011;DHT22;2524;54.364;10.072;2023-02-13T15:37:20;7.50;99.90
5011;DHT22;2524;54.364;10.072;2023-02-13T15:39:45;7.50;99.90
5011;DHT22;2524;54.364;10.072;2023-02-13T15:42:11;7.50;99.90
5011;DHT22;2524;54.364;10.072;2023-02-13T15:44:38;7.50;99.90
5011;DHT22;2524;54.364;10.072;2023-02-13T15:49:45;7.50;99.90
5011;DHT22;2524;54.364;10.072;2023-02-13T15:52:19;7.50;99.90
5011;DHT22;2524;54.364;10.072;2023-02-13T15:54:51;7.40;99.90
5011;DHT22;2524;54.364;10.072;2023-02-13T15:57:17;7.40;99.90
5011;DHT22;2524;54.364;10.072;2023-02-13T15:59:45;7.40;99.90
5011;DHT22;2524;54.364;10.072;2023-02-13T16:02:19;7.40;99.90
5011;DHT22;2524;54.364;10.072;2023-02-13T16:04:50;7.40;99.90
5011;DHT22;2524;54.364;10.072;2023-02-13T16:07:16;7.40;99.90
5011;DHT22;2524;54.364;10.072;2023-02-13T16:09:42;7.40;99.90
5011;DHT22;2524;54.364;10.072;2023-02-13T16:12:26;7.40;99.90
5011;DHT22;2524;54.364;10.072;2023-02-13T16:14:58;7.40;99.90
5011;DHT22;2524;54.364;10.072;2023-02-13T16:17:34;7.40;99.90
5011;DHT22;2524;54.364;10.072;2023-02-13T16:20:05;7.40;99.90
5011;DHT22;2524;54.364;10.072;2023-02-13T16:22:33;7.40;99.90
5011;DHT22;2524;54.364;10.072;2023-02-13T16:27:36;7.40;99.90
5011;DHT22;2524;54.364;10.072;2023-02-13T16:30:17;7.40;99.90
5011;DHT22;2524;54.364;10.072;2023-02-13T16:32:46;7.40;99.90
5011;DHT22;2524;54.364;10.072;2023-02-13T16:35:29;7.30;99.90
5011;DHT22;2524;54.364;10.072;2023-02-13T16:37:57;7.30;99.90
5011;DHT22;2524;54.364;10.072;2023-02-13T16:40:32;7.30;99.90
5011;DHT22;2524;54.364;10.072;2023-02-13T16:53:59;7.30;99.90
5011;DHT22;2524;54.364;10.072;2023-02-13T16:56:26;7.30;99.90
5011;DHT22;2524;54.364;10.072;2023-02-13T16:59:47;7.30;99.90
5011;DHT22;2524;54.364;10.072;2023-02-13T17:02:15;7.20;99.90
5011;DHT22;2524;54.364;10.072;2023-02-13T17:04:44;7.20;99.90
5011;DHT22;2524;54.364;10.072;2023-02-13T17:09:43;7.20;99.90
5011;DHT22;2524;54.364;10.072;2023-02-13T17:12:14;7.30;99.90
5011;DHT22;2524;54.364;10.072;2023-02-13T17:14:40;7.20;99.90
5011;DHT22;2524;54.364;10.072;2023-02-13T17:17:21;7.20;99.90
5011;DHT22;2524;54.364;10.072;2023-02-13T17:19:47;7.20;99.90
5011;DHT22;2524;54.364;10.072;2023-02-13T17:24:48;7.20;99.90
5011;DHT22;2524;54.364;10.072;2023-02-13T17:27:13;7.10;99.90
5011;DHT22;2524;54.364;10.072;2023-02-13T17:29:39;7.10;99.90
5011;DHT22;2524;54.364;10.072;2023-02-13T17:32:13;7.10;99.90
5011;DHT22;2524;54.364;10.072;2023-02-13T17:34:43;7.10;99.90
5011;DHT22;2524;54.364;10.072;2023-02-13T17:37:25;7.10;99.90
5011;DHT22;2524;54.364;10.072;2023-02-13T17:39:51;7.00;99.90
5011;DHT22;2524;54.364;10.072;2023-02-13T17:42:25;7.10;99.90
5011;DHT22;2524;54.364;10.072;2023-02-13T17:44:53;7.00;99.90
5011;DHT22;2524;54.364;10.072;2023-02-13T17:47:20;7.10;99.90
5011;DHT22;2524;54.364;10.072;2023-02-13T17:49:46;7.10;99.90
5011;DHT22;2524;54.364;10.072;2023-02-13T17:52:24;7.00;99.90
5011;DHT22;2524;54.364;10.072;2023-02-13T17:54:51;7.00;99.90
5011;DHT22;2524;54.364;10.072;2023-02-13T17:57:17;7.00;99.90
5011;DHT22;2524;54.364;10.072;2023-02-13T17:59:43;7.00;99.90
5011;DHT22;2524;54.364;10.072;2023-02-13T18:02:22;7.00;99.90
5011;DHT22;2524;54.364;10.072;2023-02-13T18:04:48;7.00;99.90
5011;DHT22;2524;54.364;10.072;2023-02-13T18:07:19;7.00;99.90
5011;DHT22;2524;54.364;10.072;2023-02-13T18:09:45;7.00;99.90
5011;DHT22;2524;54.364;10.072;2023-02-13T18:12:17;7.00;99.90
5011;DHT22;2524;54.364;10.072;2023-02-13T18:14:45;7.00;99.90
5011;DHT22;2524;54.364;10.072;2023-02-13T18:17:11;7.00;99.90
5011;DHT22;2524;54.364;10.072;2023-02-13T18:19:37;7.00;99.90
5011;DHT22;2524;54.364;10.072;2023-02-13T18:22:03;7.00;99.90
5011;DHT22;2524;54.364;10.072;2023-02-13T18:24:30;7.00;99.90
5011;DHT22;2524;54.364;10.072;2023-02-13T18:26:56;7.00;99.90
5011;DHT22;2524;54.364;10.072;2023-02-13T18:29:22;7.00;99.90
5011;DHT22;2524;54.364;10.072;2023-02-13T18:31:48;7.00;99.90
5011;DHT22;2524;54.364;10.072;2023-02-13T18:34:17;7.00;99.90
5011;DHT22;2524;54.364;10.072;2023-02-13T18:36:43;7.00;99.90
5011;DHT22;2524;54.364;10.072;2023-02-13T18:39:08;7.00;99.90
5011;DHT22;2524;54.364;10.072;2023-02-13T18:41:34;7.00;99.90
5011;DHT22;2524;54.364;10.072;2023-02-13T18:43:59;7.00;99.90
5011;DHT22;2524;54.364;10.072;2023-02-13T18:46:25;6.90;99.90
5011;DHT22;2524;54.364;10.072;2023-02-13T18:48:50;7.00;99.90
5011;DHT22;2524;54.364;10.072;2023-02-13T18:51:16;6.90;99.90
5011;DHT22;2524;54.364;10.072;2023-02-13T18:53:42;6.90;99.90
5011;DHT22;2524;54.364;10.072;2023-02-13T18:56:07;6.90;99.90
5011;DHT22;2524;54.364;10.072;2023-02-13T18:58:34;6.90;99.90